Maple Hill, Kansas
Current Conditions -  °F | °C
As of 8:32 AM on Sunday 23 Nov 2014 (Local Time) from KFOE Reporting Station
Haze Haze  
Wind Chill: 56°   Ceiling: 1000
Heat Index: 56°   Visibility: 4mi
Dew Point: 53°   Wind: 0mph
Humidity: 90%   Direction: NA
Pressure: 29.5"   Gusts: NA
Location:  39.08°N, 96.03°W
Report Text: KFOE 231432Z 00000KT 4SM BR BKN010 OVC014 13/12 A2950 RMK AO2 CIG 009V012 T01330117
Loading
Personal Weather Stations






























Interactive Weather Map New forecast layout! Learn more

10-Day Weather Forecast

Advertisements
Track Severe Weather on mobile